Time;durP1;ratioP1;P1;durP2;ratioP2;P2;SDS_P1;SDS_P2;PMS_P1;PMS_P2;Temp;Humidity;BMP_temperature;BMP_pressure;BME280_temperature;BME280_humidity;BME280_pressure;Samples;Min_cycle;Max_cycle;Signal;HPM_P1;HPM_P2
2023/01/15 00:08:02;;;;;;;2.83;1.10;;;;;;;7.25;53.31;99177.22;30745572;28;96627;-64
2023/01/15 00:23:03;;;;;;;1.77;1.20;;;;;;;7.29;53.02;99114.94;30749556;28;96682;-65
2023/01/15 00:38:03;;;;;;;1.52;0.98;;;;;;;7.34;54.48;99117.88;30748457;28;97786;-65
2023/01/15 00:53:04;;;;;;;7.53;1.52;;;;;;;7.25;55.17;99087.16;30745903;28;97322;-64
2023/01/15 01:08:04;;;;;;;5.63;1.67;;;;;;;7.12;57.50;99071.81;30745086;28;96579;-65
2023/01/15 01:23:05;;;;;;;3.47;1.63;;;;;;;7.05;58.74;99047.88;30743734;28;97297;-64
2023/01/15 01:38:05;;;;;;;2.05;1.23;;;;;;;7.04;59.66;99038.28;30742526;28;96580;-65
2023/01/15 01:53:09;;;;;;;3.88;1.83;;;;;;;7.06;60.76;99012.44;30740780;28;96741;-65
2023/01/15 02:08:10;;;;;;;2.72;1.65;;;;;;;7.10;60.94;98984.59;30739631;28;96623;-65
2023/01/15 02:23:43;;;;;;;2.20;1.33;;;;;;;7.08;62.50;98976.03;30736913;28;96899;-65
2023/01/15 02:38:49;;;;;;;2.83;1.30;;;;;;;7.07;63.73;98947.88;30737009;28;96692;-65
2023/01/15 02:53:55;;;;;;;1.40;0.93;;;;;;;7.05;64.57;98952.56;30735372;28;96760;-66
2023/01/15 03:08:55;;;;;;;1.45;0.90;;;;;;;7.09;65.47;98930.00;30734546;28;96690;-65
2023/01/15 03:24:01;;;;;;;2.70;1.05;;;;;;;7.18;66.24;98900.81;30733434;28;97297;-66
2023/01/15 03:39:02;;;;;;;1.60;0.98;;;;;;;7.24;66.62;98923.91;30743384;28;96738;-65
2023/01/15 03:54:10;;;;;;;1.87;1.17;;;;;;;7.36;67.70;98887.22;30752053;28;96637;-66
2023/01/15 04:09:12;;;;;;;0.73;0.70;;;;;;;7.43;68.05;98874.88;30750531;28;96692;-65
2023/01/15 04:24:12;;;;;;;1.30;0.77;;;;;;;7.54;68.78;98855.84;30748375;28;96748;-65
2023/01/15 04:39:13;;;;;;;3.13;1.13;;;;;;;7.39;70.03;98858.50;30747702;28;96563;-66
2023/01/15 04:54:14;;;;;;;1.58;0.80;;;;;;;7.25;71.86;98811.66;30744782;28;97878;-64
2023/01/15 05:09:15;;;;;;;1.88;1.02;;;;;;;7.21;72.18;98810.38;30744287;28;96702;-64
2023/01/15 05:24:17;;;;;;;2.13;1.00;;;;;;;7.18;72.70;98790.38;30742636;28;97915;-64
2023/01/15 05:39:17;;;;;;;1.63;0.90;;;;;;;7.30;72.57;98788.09;30742167;28;96565;-64
2023/01/15 05:54:20;;;;;;;1.20;0.65;;;;;;;7.32;73.06;98782.59;30740031;28;96985;-64
2023/01/15 06:09:21;;;;;;;1.30;1.17;;;;;;;7.24;73.82;98799.41;30737971;28;97408;-64
2023/01/15 06:24:22;;;;;;;3.22;1.10;;;;;;;7.13;74.33;98815.75;30734706;28;96589;-64
2023/01/15 06:39:22;;;;;;;1.08;0.88;;;;;;;7.11;75.35;98798.22;30734374;28;96638;-65
2023/01/15 06:54:23;;;;;;;3.60;1.77;;;;;;;7.07;76.33;98789.00;30734062;28;97380;-64
2023/01/15 07:09:23;;;;;;;2.30;1.20;;;;;;;7.15;76.25;98789.91;30744011;28;96639;-64
2023/01/15 07:24:23;;;;;;;1.85;0.90;;;;;;;7.25;76.30;98769.28;30770443;28;96684;-65
2023/01/15 07:39:24;;;;;;;1.13;0.80;;;;;;;7.63;74.80;98796.44;30770739;28;96666;-63
2023/01/15 07:54:25;;;;;;;2.38;1.30;;;;;;;7.79;73.21;98774.22;30769710;28;96729;-64
2023/01/15 08:09:25;;;;;;;2.72;1.20;;;;;;;7.82;71.64;98790.75;30768067;28;96643;-65
2023/01/15 08:24:27;;;;;;;2.35;1.17;;;;;;;7.86;70.51;98754.88;30760387;28;96559;-65
2023/01/15 08:39:28;;;;;;;2.23;1.43;;;;;;;7.94;69.97;98741.50;30767963;28;97411;-63
2023/01/15 08:54:30;;;;;;;5.13;1.73;;;;;;;7.86;69.29;98728.38;30779102;28;97420;-65
2023/01/15 09:09:30;;;;;;;2.42;1.42;;;;;;;7.82;69.17;98737.72;30742088;28;96891;-64
2023/01/15 09:24:30;;;;;;;2.13;1.38;;;;;;;7.83;68.53;98697.75;30741412;28;97384;-64
2023/01/15 09:39:31;;;;;;;2.30;1.23;;;;;;;7.91;68.24;98715.38;30739704;28;96772;-66
2023/01/15 09:54:49;;;;;;;1.98;1.20;;;;;;;7.92;67.84;98746.19;30738145;28;97523;-66
2023/01/15 10:10:00;;;;;;;2.37;1.30;;;;;;;7.98;67.19;98697.69;30736145;28;96570;-66
2023/01/15 10:25:08;;;;;;;1.77;1.37;;;;;;;7.93;67.27;98682.38;30735313;28;96774;-66
2023/01/15 10:40:33;;;;;;;3.03;1.60;;;;;;;7.85;67.11;98706.34;30734615;28;96823;-66
2023/01/15 10:55:44;;;;;;;3.10;1.60;;;;;;;7.89;66.81;98696.22;30732931;28;96968;-66
2023/01/15 11:10:45;;;;;;;3.10;1.70;;;;;;;7.99;66.47;98674.66;30796360;28;96727;-67
2023/01/15 11:25:54;;;;;;;5.40;2.05;;;;;;;8.23;66.30;98666.28;30842207;28;96669;-64
2023/01/15 11:41:00;;;;;;;3.70;1.93;;;;;;;8.56;65.64;98665.75;30851024;28;96764;-64
2023/01/15 11:56:08;;;;;;;2.27;1.87;;;;;;;8.30;64.99;98714.09;30842809;28;96661;-66
2023/01/15 12:11:25;;;;;;;2.83;1.60;;;;;;;7.89;65.44;98722.72;30765361;28;96935;-67
2023/01/15 12:26:37;;;;;;;3.03;1.90;;;;;;;7.58;65.97;98727.28;30746499;28;96554;-68
2023/01/15 12:57:14;;;;;;;3.03;1.13;;;;;;;7.47;67.30;98803.78;30806516;28;96715;-66
2023/01/15 13:12:15;;;;;;;2.73;1.00;;;;;;;6.97;68.05;98836.13;30754380;28;96721;-64
2023/01/15 13:27:24;;;;;;;1.85;0.85;;;;;;;6.50;69.06;98859.16;30745911;28;96999;-65
2023/01/15 13:42:33;;;;;;;4.28;1.08;;;;;;;6.12;69.88;98863.53;30753240;28;97514;-63
2023/01/15 13:57:33;;;;;;;1.50;1.10;;;;;;;5.86;71.04;98891.03;30737428;28;97149;-63
2023/01/15 14:12:59;;;;;;;3.67;2.05;;;;;;;5.66;71.98;98935.53;30736063;28;96668;-64
2023/01/15 14:28:23;;;;;;;3.47;2.10;;;;;;;5.53;72.22;98944.81;30733525;28;97249;-64
2023/01/15 14:43:25;;;;;;;10.93;4.10;;;;;;;5.39;73.10;98969.28;30734208;28;97306;-66
2023/01/15 14:58:45;;;;;;;5.95;3.20;;;;;;;5.29;73.68;98950.97;30731330;28;96679;-69
2023/01/15 15:13:46;;;;;;;5.78;3.10;;;;;;;4.97;74.14;98936.78;30730168;28;96739;-66
2023/01/15 15:28:58;;;;;;;6.70;2.53;;;;;;;4.80;74.44;98945.66;30726363;28;96788;-64
2023/01/15 15:59:29;;;;;;;6.68;3.25;;;;;;;4.60;76.18;99024.31;30736432;28;97323;-66
2023/01/15 16:14:33;;;;;;;5.15;3.13;;;;;;;4.52;76.64;99030.38;30746633;28;96626;-66
2023/01/15 16:29:34;;;;;;;8.10;3.93;;;;;;;4.53;77.17;99038.13;30766399;28;97136;-66
2023/01/15 16:44:35;;;;;;;10.63;4.95;;;;;;;4.60;77.70;99042.78;30797791;28;96707;-65
2023/01/15 16:59:36;;;;;;;9.38;6.07;;;;;;;4.50;77.76;99058.72;30830680;28;96637;-67
2023/01/15 17:14:36;;;;;;;13.48;7.20;;;;;;;4.36;78.12;99066.25;30855984;28;98088;-69
2023/01/15 17:29:37;;;;;;;12.65;7.22;;;;;;;4.28;78.86;99073.28;30731117;28;97389;-67
2023/01/15 17:44:37;;;;;;;10.90;5.80;;;;;;;4.37;79.08;99096.06;30729056;28;97037;-67
2023/01/15 18:14:57;;;;;;;13.82;7.68;;;;;;;4.33;79.48;99136.91;30727691;28;97232;-71
2023/01/15 18:29:58;;;;;;;17.45;8.82;;;;;;;4.31;79.28;99144.97;30821178;28;97096;-71
2023/01/15 19:00:20;;;;;;;9.27;5.32;;;;;;;4.29;79.63;99168.06;30842935;28;97204;-68
2023/01/15 19:30:40;;;;;;;9.52;5.63;;;;;;;4.29;78.96;99194.44;30840777;28;98173;-68
2023/01/15 20:01:03;;;;;;;8.13;5.18;;;;;;;4.23;78.11;99226.66;30756498;28;96619;-66
2023/01/15 20:16:10;;;;;;;10.65;5.50;;;;;;;4.17;77.69;99227.25;30791260;28;96756;-66
2023/01/15 20:31:15;;;;;;;9.88;5.40;;;;;;;4.14;77.54;99224.94;30770383;28;98648;-66
2023/01/15 20:46:16;;;;;;;8.15;4.82;;;;;;;3.90;77.21;99213.22;30733547;28;96697;-66
2023/01/15 21:01:16;;;;;;;16.17;7.03;;;;;;;3.49;76.74;99218.91;30731743;28;97662;-66
2023/01/15 21:16:17;;;;;;;6.80;3.80;;;;;;;3.28;77.23;99200.75;30730654;28;97185;-66
2023/01/15 21:31:17;;;;;;;5.28;2.35;;;;;;;3.10;76.62;99210.41;30730390;28;97326;-67
2023/01/15 21:46:19;;;;;;;5.85;2.42;;;;;;;2.89;77.10;99203.56;30717539;28;97473;-67
2023/01/15 22:01:19;;;;;;;9.30;2.90;;;;;;;2.74;76.24;99205.03;30738047;28;96591;-67
2023/01/15 22:16:20;;;;;;;5.18;1.77;;;;;;;2.47;75.74;99188.22;30737944;28;96459;-66
2023/01/15 22:31:20;;;;;;;5.60;1.52;;;;;;;2.17;75.56;99166.44;30736562;28;96685;-67
2023/01/15 22:46:21;;;;;;;4.53;2.20;;;;;;;1.90;75.65;99152.25;30735275;28;96633;-67
2023/01/15 23:01:25;;;;;;;4.70;2.35;;;;;;;1.87;75.35;99147.25;30734658;28;96619;-68
2023/01/15 23:16:25;;;;;;;3.33;1.30;;;;;;;1.78;74.83;99142.84;30733858;28;96758;-67
2023/01/15 23:31:26;;;;;;;2.50;1.30;;;;;;;1.56;74.55;99129.03;30732265;28;97541;-67
2023/01/15 23:46:32;;;;;;;2.22;1.73;;;;;;;1.56;74.60;99129.03;30731249;28;97306;-67
